sensor_id;sensor_type;location;lat;lon;timestamp;temperature;humidity
45115;DHT22;30877;43.706;10.780;2022-09-09T00:01:02;25.20;96.70
45115;DHT22;30877;43.706;10.780;2022-09-09T00:03:36;25.20;96.70
45115;DHT22;30877;43.706;10.780;2022-09-09T00:06:15;25.10;96.70
45115;DHT22;30877;43.706;10.780;2022-09-09T00:08:52;25.10;96.70
45115;DHT22;30877;43.706;10.780;2022-09-09T00:11:43;25.20;96.70
45115;DHT22;30877;43.706;10.780;2022-09-09T00:14:19;25.20;96.70
45115;DHT22;30877;43.706;10.780;2022-09-09T00:16:50;25.20;96.70
45115;DHT22;30877;43.706;10.780;2022-09-09T00:19:23;25.20;96.70
45115;DHT22;30877;43.706;10.780;2022-09-09T00:22:00;25.00;96.70
45115;DHT22;30877;43.706;10.780;2022-09-09T00:24:37;24.90;96.70
45115;DHT22;30877;43.706;10.780;2022-09-09T00:27:11;24.80;96.70
45115;DHT22;30877;43.706;10.780;2022-09-09T00:29:45;24.80;96.70
45115;DHT22;30877;43.706;10.780;2022-09-09T00:32:16;24.90;96.70
45115;DHT22;30877;43.706;10.780;2022-09-09T00:34:50;25.00;96.70
45115;DHT22;30877;43.706;10.780;2022-09-09T00:37:22;25.00;96.70
45115;DHT22;30877;43.706;10.780;2022-09-09T00:39:55;25.10;96.70
45115;DHT22;30877;43.706;10.780;2022-09-09T00:42:26;24.90;96.70
45115;DHT22;30877;43.706;10.780;2022-09-09T00:45:05;24.80;96.70
45115;DHT22;30877;43.706;10.780;2022-09-09T00:47:45;24.70;96.70
45115;DHT22;30877;43.706;10.780;2022-09-09T00:50:28;24.60;96.70
45115;DHT22;30877;43.706;10.780;2022-09-09T00:53:15;24.60;96.70
45115;DHT22;30877;43.706;10.780;2022-09-09T00:55:49;24.60;96.70
45115;DHT22;30877;43.706;10.780;2022-09-09T00:58:19;24.50;96.70
45115;DHT22;30877;43.706;10.780;2022-09-09T01:00:51;24.50;96.70
45115;DHT22;30877;43.706;10.780;2022-09-09T01:03:25;24.60;96.70
45115;DHT22;30877;43.706;10.780;2022-09-09T01:06:01;24.60;96.70
45115;DHT22;30877;43.706;10.780;2022-09-09T01:09:02;24.70;96.70
45115;DHT22;30877;43.706;10.780;2022-09-09T01:11:41;24.70;96.70
45115;DHT22;30877;43.706;10.780;2022-09-09T01:14:20;24.70;96.70
45115;DHT22;30877;43.706;10.780;2022-09-09T01:16:55;24.70;96.70
45115;DHT22;30877;43.706;10.780;2022-09-09T01:19:33;24.70;96.70
45115;DHT22;30877;43.706;10.780;2022-09-09T01:22:10;24.70;96.70
45115;DHT22;30877;43.706;10.780;2022-09-09T01:28:15;24.70;96.70
45115;DHT22;30877;43.706;10.780;2022-09-09T01:30:44;24.60;96.70
45115;DHT22;30877;43.706;10.780;2022-09-09T01:33:17;24.50;96.70
45115;DHT22;30877;43.706;10.780;2022-09-09T01:35:48;24.50;96.70
45115;DHT22;30877;43.706;10.780;2022-09-09T01:38:25;24.40;96.70
45115;DHT22;30877;43.706;10.780;2022-09-09T01:40:53;24.40;96.70
45115;DHT22;30877;43.706;10.780;2022-09-09T01:43:30;24.50;96.70
45115;DHT22;30877;43.706;10.780;2022-09-09T01:46:00;24.50;96.70
45115;DHT22;30877;43.706;10.780;2022-09-09T01:48:30;24.50;96.70
45115;DHT22;30877;43.706;10.780;2022-09-09T01:51:02;24.40;96.70
45115;DHT22;30877;43.706;10.780;2022-09-09T01:53:30;24.40;96.70
45115;DHT22;30877;43.706;10.780;2022-09-09T01:56:20;24.30;96.70
45115;DHT22;30877;43.706;10.780;2022-09-09T01:59:04;24.30;96.70
45115;DHT22;30877;43.706;10.780;2022-09-09T02:01:55;24.10;96.70
45115;DHT22;30877;43.706;10.780;2022-09-09T02:04:38;24.10;96.70
45115;DHT22;30877;43.706;10.780;2022-09-09T02:07:39;24.10;96.70
45115;DHT22;30877;43.706;10.780;2022-09-09T02:10:22;24.10;96.70
45115;DHT22;30877;43.706;10.780;2022-09-09T02:13:07;24.00;96.70
45115;DHT22;30877;43.706;10.780;2022-09-09T02:15:42;24.00;96.70
45115;DHT22;30877;43.706;10.780;2022-09-09T02:18:13;24.00;96.70
45115;DHT22;30877;43.706;10.780;2022-09-09T02:20:43;24.00;96.70
45115;DHT22;30877;43.706;10.780;2022-09-09T02:23:13;24.00;96.70
45115;DHT22;30877;43.706;10.780;2022-09-09T02:25:44;23.90;96.70
45115;DHT22;30877;43.706;10.780;2022-09-09T02:28:20;23.90;96.70
45115;DHT22;30877;43.706;10.780;2022-09-09T02:30:51;23.80;96.70
45115;DHT22;30877;43.706;10.780;2022-09-09T02:33:35;23.80;96.70
45115;DHT22;30877;43.706;10.780;2022-09-09T02:36:06;23.80;96.70
45115;DHT22;30877;43.706;10.780;2022-09-09T02:38:38;23.80;96.70
45115;DHT22;30877;43.706;10.780;2022-09-09T02:41:12;23.80;96.70
45115;DHT22;30877;43.706;10.780;2022-09-09T02:43:40;23.80;96.70
45115;DHT22;30877;43.706;10.780;2022-09-09T02:46:29;23.80;96.70
45115;DHT22;30877;43.706;10.780;2022-09-09T02:49:02;23.70;96.70
45115;DHT22;30877;43.706;10.780;2022-09-09T02:51:40;23.80;96.70
45115;DHT22;30877;43.706;10.780;2022-09-09T02:54:20;23.90;96.70
45115;DHT22;30877;43.706;10.780;2022-09-09T02:56:52;23.90;96.70
45115;DHT22;30877;43.706;10.780;2022-09-09T02:59:30;23.90;96.70
45115;DHT22;30877;43.706;10.780;2022-09-09T03:02:00;23.80;96.70
45115;DHT22;30877;43.706;10.780;2022-09-09T03:04:29;23.80;96.70
45115;DHT22;30877;43.706;10.780;2022-09-09T03:06:58;23.70;96.70
45115;DHT22;30877;43.706;10.780;2022-09-09T03:09:26;23.70;96.70
45115;DHT22;30877;43.706;10.780;2022-09-09T03:11:55;23.70;96.70
45115;DHT22;30877;43.706;10.780;2022-09-09T03:14:23;23.70;96.70
45115;DHT22;30877;43.706;10.780;2022-09-09T03:16:55;23.60;96.70
45115;DHT22;30877;43.706;10.780;2022-09-09T03:19:27;23.60;96.70
45115;DHT22;30877;43.706;10.780;2022-09-09T03:21:55;23.60;96.70
45115;DHT22;30877;43.706;10.780;2022-09-09T03:24:23;23.60;96.70
45115;DHT22;30877;43.706;10.780;2022-09-09T03:26:51;23.70;96.70
45115;DHT22;30877;43.706;10.780;2022-09-09T03:29:19;23.80;96.70
45115;DHT22;30877;43.706;10.780;2022-09-09T03:31:47;23.80;96.70
45115;DHT22;30877;43.706;10.780;2022-09-09T03:34:15;23.80;96.70
45115;DHT22;30877;43.706;10.780;2022-09-09T03:36:45;23.70;96.70
45115;DHT22;30877;43.706;10.780;2022-09-09T03:39:14;23.70;96.70
45115;DHT22;30877;43.706;10.780;2022-09-09T03:41:43;23.70;96.70
45115;DHT22;30877;43.706;10.780;2022-09-09T03:44:14;23.80;96.70
45115;DHT22;30877;43.706;10.780;2022-09-09T03:46:43;23.80;96.70
45115;DHT22;30877;43.706;10.780;2022-09-09T03:49:11;23.80;96.70
45115;DHT22;30877;43.706;10.780;2022-09-09T03:51:38;23.80;96.70
45115;DHT22;30877;43.706;10.780;2022-09-09T03:54:11;23.80;96.70
45115;DHT22;30877;43.706;10.780;2022-09-09T03:56:39;23.80;96.70
45115;DHT22;30877;43.706;10.780;2022-09-09T03:59:11;23.80;96.70
45115;DHT22;30877;43.706;10.780;2022-09-09T04:01:42;23.70;96.70
45115;DHT22;30877;43.706;10.780;2022-09-09T04:04:10;23.70;96.70
45115;DHT22;30877;43.706;10.780;2022-09-09T04:06:39;23.80;96.70
45115;DHT22;30877;43.706;10.780;2022-09-09T04:09:07;23.70;96.70
45115;DHT22;30877;43.706;10.780;2022-09-09T04:11:39;23.60;96.70
45115;DHT22;30877;43.706;10.780;2022-09-09T04:14:08;23.60;96.70
45115;DHT22;30877;43.706;10.780;2022-09-09T04:16:36;23.60;96.70
45115;DHT22;30877;43.706;10.780;2022-09-09T04:19:05;23.50;96.70
45115;DHT22;30877;43.706;10.780;2022-09-09T04:21:35;23.50;96.70
45115;DHT22;30877;43.706;10.780;2022-09-09T04:24:04;23.40;96.70
45115;DHT22;30877;43.706;10.780;2022-09-09T04:26:32;23.40;96.70
45115;DHT22;30877;43.706;10.780;2022-09-09T04:29:02;23.40;96.70
45115;DHT22;30877;43.706;10.780;2022-09-09T04:31:30;23.40;96.70
45115;DHT22;30877;43.706;10.780;2022-09-09T04:33:59;23.30;96.70
45115;DHT22;30877;43.706;10.780;2022-09-09T04:36:33;23.30;96.70
45115;DHT22;30877;43.706;10.780;2022-09-09T04:39:04;23.30;96.70
45115;DHT22;30877;43.706;10.780;2022-09-09T04:41:32;23.30;96.70
45115;DHT22;30877;43.706;10.780;2022-09-09T04:44:02;23.30;96.70
45115;DHT22;30877;43.706;10.780;2022-09-09T04:46:32;23.40;96.70
45115;DHT22;30877;43.706;10.780;2022-09-09T04:49:02;23.30;96.70
45115;DHT22;30877;43.706;10.780;2022-09-09T04:51:33;23.30;96.70
45115;DHT22;30877;43.706;10.780;2022-09-09T04:54:01;23.30;96.70
45115;DHT22;30877;43.706;10.780;2022-09-09T04:56:30;23.30;96.70
45115;DHT22;30877;43.706;10.780;2022-09-09T04:59:02;23.40;96.70
45115;DHT22;30877;43.706;10.780;2022-09-09T05:01:37;23.40;96.70
45115;DHT22;30877;43.706;10.780;2022-09-09T05:04:06;23.30;96.70
45115;DHT22;30877;43.706;10.780;2022-09-09T05:06:34;23.30;96.70
45115;DHT22;30877;43.706;10.780;2022-09-09T05:09:04;23.30;96.70
45115;DHT22;30877;43.706;10.780;2022-09-09T05:11:33;23.30;96.70
45115;DHT22;30877;43.706;10.780;2022-09-09T05:14:27;23.40;96.70
45115;DHT22;30877;43.706;10.780;2022-09-09T05:16:55;23.40;96.70
45115;DHT22;30877;43.706;10.780;2022-09-09T05:19:24;23.40;96.70
45115;DHT22;30877;43.706;10.780;2022-09-09T05:21:53;23.40;96.70
45115;DHT22;30877;43.706;10.780;2022-09-09T05:24:27;23.40;96.70
45115;DHT22;30877;43.706;10.780;2022-09-09T05:26:57;23.40;96.70
45115;DHT22;30877;43.706;10.780;2022-09-09T05:29:29;23.40;96.70
45115;DHT22;30877;43.706;10.780;2022-09-09T05:31:57;23.40;96.70
45115;DHT22;30877;43.706;10.780;2022-09-09T05:34:25;23.40;96.70
45115;DHT22;30877;43.706;10.780;2022-09-09T05:36:55;23.40;96.70
45115;DHT22;30877;43.706;10.780;2022-09-09T05:39:24;23.40;96.70
45115;DHT22;30877;43.706;10.780;2022-09-09T05:41:52;23.40;96.70
45115;DHT22;30877;43.706;10.780;2022-09-09T05:44:20;23.40;96.70
45115;DHT22;30877;43.706;10.780;2022-09-09T05:46:50;23.40;96.70
45115;DHT22;30877;43.706;10.780;2022-09-09T05:49:18;23.50;96.70
45115;DHT22;30877;43.706;10.780;2022-09-09T05:51:47;23.50;96.70
45115;DHT22;30877;43.706;10.780;2022-09-09T05:54:17;23.50;96.70
45115;DHT22;30877;43.706;10.780;2022-09-09T05:56:49;23.50;96.70
45115;DHT22;30877;43.706;10.780;2022-09-09T05:59:19;23.50;96.70
45115;DHT22;30877;43.706;10.780;2022-09-09T06:01:49;23.50;96.70
45115;DHT22;30877;43.706;10.780;2022-09-09T06:04:25;23.50;96.70
45115;DHT22;30877;43.706;10.780;2022-09-09T06:06:53;23.50;96.70
45115;DHT22;30877;43.706;10.780;2022-09-09T06:09:22;23.50;96.70
45115;DHT22;30877;43.706;10.780;2022-09-09T06:11:50;23.60;96.70
45115;DHT22;30877;43.706;10.780;2022-09-09T06:14:21;23.60;96.70
45115;DHT22;30877;43.706;10.780;2022-09-09T06:16:53;23.60;96.70
45115;DHT22;30877;43.706;10.780;2022-09-09T06:19:23;23.50;96.70
45115;DHT22;30877;43.706;10.780;2022-09-09T06:21:56;23.60;96.70
45115;DHT22;30877;43.706;10.780;2022-09-09T06:24:24;23.60;96.70
45115;DHT22;30877;43.706;10.780;2022-09-09T06:26:52;23.70;96.70
45115;DHT22;30877;43.706;10.780;2022-09-09T06:29:26;23.90;96.70
45115;DHT22;30877;43.706;10.780;2022-09-09T06:31:55;24.00;96.70
45115;DHT22;30877;43.706;10.780;2022-09-09T06:34:26;24.00;96.70
45115;DHT22;30877;43.706;10.780;2022-09-09T06:36:56;24.10;96.70
45115;DHT22;30877;43.706;10.780;2022-09-09T06:39:32;24.30;96.70
45115;DHT22;30877;43.706;10.780;2022-09-09T06:42:00;24.40;96.70
45115;DHT22;30877;43.706;10.780;2022-09-09T06:44:46;24.50;96.70
45115;DHT22;30877;43.706;10.780;2022-09-09T06:47:29;24.60;96.70
45115;DHT22;30877;43.706;10.780;2022-09-09T06:49:58;24.60;96.70
45115;DHT22;30877;43.706;10.780;2022-09-09T06:52:26;24.50;96.70
45115;DHT22;30877;43.706;10.780;2022-09-09T06:54:56;24.40;96.70
45115;DHT22;30877;43.706;10.780;2022-09-09T06:57:26;24.50;96.70
45115;DHT22;30877;43.706;10.780;2022-09-09T07:00:09;24.60;96.70
45115;DHT22;30877;43.706;10.780;2022-09-09T07:02:39;24.50;96.70
45115;DHT22;30877;43.706;10.780;2022-09-09T07:05:10;24.50;96.70
45115;DHT22;30877;43.706;10.780;2022-09-09T07:07:40;24.50;96.70
45115;DHT22;30877;43.706;10.780;2022-09-09T07:10:11;24.60;96.70
45115;DHT22;30877;43.706;10.780;2022-09-09T07:12:39;24.70;96.70
45115;DHT22;30877;43.706;10.780;2022-09-09T07:15:10;24.80;96.70
45115;DHT22;30877;43.706;10.780;2022-09-09T07:17:44;24.90;96.70
45115;DHT22;30877;43.706;10.780;2022-09-09T07:20:12;25.00;96.70
45115;DHT22;30877;43.706;10.780;2022-09-09T07:22:42;25.00;96.70
45115;DHT22;30877;43.706;10.780;2022-09-09T07:25:11;25.00;96.70
45115;DHT22;30877;43.706;10.780;2022-09-09T07:27:39;25.00;96.70
45115;DHT22;30877;43.706;10.780;2022-09-09T07:30:10;25.10;96.70
45115;DHT22;30877;43.706;10.780;2022-09-09T07:32:51;25.20;96.70
45115;DHT22;30877;43.706;10.780;2022-09-09T07:35:19;25.30;96.70
45115;DHT22;30877;43.706;10.780;2022-09-09T07:37:47;25.30;96.70
45115;DHT22;30877;43.706;10.780;2022-09-09T07:40:19;25.30;96.70
45115;DHT22;30877;43.706;10.780;2022-09-09T07:42:50;25.40;96.70
45115;DHT22;30877;43.706;10.780;2022-09-09T07:45:18;25.60;96.70
45115;DHT22;30877;43.706;10.780;2022-09-09T07:47:48;25.80;96.70
45115;DHT22;30877;43.706;10.780;2022-09-09T07:50:18;26.00;96.70
45115;DHT22;30877;43.706;10.780;2022-09-09T07:52:47;26.20;96.70
45115;DHT22;30877;43.706;10.780;2022-09-09T07:55:15;26.30;96.70
45115;DHT22;30877;43.706;10.780;2022-09-09T07:57:43;26.40;96.70
45115;DHT22;30877;43.706;10.780;2022-09-09T08:00:13;26.50;96.70
45115;DHT22;30877;43.706;10.780;2022-09-09T08:02:50;26.60;96.70
45115;DHT22;30877;43.706;10.780;2022-09-09T08:05:18;26.80;96.70
45115;DHT22;30877;43.706;10.780;2022-09-09T08:07:46;26.80;96.70
45115;DHT22;30877;43.706;10.780;2022-09-09T08:10:15;26.90;96.70
45115;DHT22;30877;43.706;10.780;2022-09-09T08:12:45;27.10;96.70
45115;DHT22;30877;43.706;10.780;2022-09-09T08:15:34;27.30;96.70
45115;DHT22;30877;43.706;10.780;2022-09-09T08:18:05;27.30;96.70
45115;DHT22;30877;43.706;10.780;2022-09-09T08:20:36;27.40;96.70
45115;DHT22;30877;43.706;10.780;2022-09-09T08:23:06;27.40;96.70
45115;DHT22;30877;43.706;10.780;2022-09-09T08:25:35;27.40;96.70
45115;DHT22;30877;43.706;10.780;2022-09-09T08:28:04;27.40;96.70
45115;DHT22;30877;43.706;10.780;2022-09-09T08:30:32;27.40;96.70
45115;DHT22;30877;43.706;10.780;2022-09-09T08:33:01;27.50;96.70
45115;DHT22;30877;43.706;10.780;2022-09-09T08:35:31;27.50;96.70
45115;DHT22;30877;43.706;10.780;2022-09-09T08:38:01;27.50;96.70
45115;DHT22;30877;43.706;10.780;2022-09-09T08:40:40;27.50;96.70
45115;DHT22;30877;43.706;10.780;2022-09-09T08:43:12;27.60;96.70
45115;DHT22;30877;43.706;10.780;2022-09-09T08:45:49;27.80;96.70
45115;DHT22;30877;43.706;10.780;2022-09-09T08:48:36;27.70;96.70
45115;DHT22;30877;43.706;10.780;2022-09-09T08:51:12;27.60;96.70
45115;DHT22;30877;43.706;10.780;2022-09-09T08:53:46;27.60;96.70
45115;DHT22;30877;43.706;10.780;2022-09-09T08:56:20;27.60;96.70
45115;DHT22;30877;43.706;10.780;2022-09-09T08:58:53;27.70;96.70
45115;DHT22;30877;43.706;10.780;2022-09-09T09:01:54;27.60;96.70
45115;DHT22;30877;43.706;10.780;2022-09-09T09:04:57;27.60;96.70
45115;DHT22;30877;43.706;10.780;2022-09-09T09:07:40;27.80;96.70
45115;DHT22;30877;43.706;10.780;2022-09-09T09:10:18;27.80;96.70
45115;DHT22;30877;43.706;10.780;2022-09-09T09:13:17;27.80;96.70
45115;DHT22;30877;43.706;10.780;2022-09-09T09:15:52;27.80;96.70
45115;DHT22;30877;43.706;10.780;2022-09-09T09:18:24;27.80;96.70
45115;DHT22;30877;43.706;10.780;2022-09-09T09:21:00;27.80;96.70
45115;DHT22;30877;43.706;10.780;2022-09-09T09:23:42;27.90;96.70
45115;DHT22;30877;43.706;10.780;2022-09-09T09:26:12;28.00;96.70
45115;DHT22;30877;43.706;10.780;2022-09-09T09:28:42;27.90;96.70
45115;DHT22;30877;43.706;10.780;2022-09-09T09:31:15;28.00;96.70
45115;DHT22;30877;43.706;10.780;2022-09-09T09:33:49;27.80;96.70
45115;DHT22;30877;43.706;10.780;2022-09-09T09:36:21;27.60;96.70
45115;DHT22;30877;43.706;10.780;2022-09-09T09:38:56;27.70;96.70
45115;DHT22;30877;43.706;10.780;2022-09-09T09:41:46;27.70;96.70
45115;DHT22;30877;43.706;10.780;2022-09-09T09:44:24;27.70;96.70
45115;DHT22;30877;43.706;10.780;2022-09-09T09:47:04;27.80;96.70
45115;DHT22;30877;43.706;10.780;2022-09-09T09:49:34;28.10;96.70
45115;DHT22;30877;43.706;10.780;2022-09-09T09:52:03;28.10;96.70
45115;DHT22;30877;43.706;10.780;2022-09-09T09:54:37;28.20;96.70
45115;DHT22;30877;43.706;10.780;2022-09-09T09:57:10;28.30;96.70
45115;DHT22;30877;43.706;10.780;2022-09-09T09:59:40;28.30;96.70
45115;DHT22;30877;43.706;10.780;2022-09-09T10:02:21;28.40;96.70
45115;DHT22;30877;43.706;10.780;2022-09-09T10:05:06;28.50;96.70
45115;DHT22;30877;43.706;10.780;2022-09-09T10:07:36;28.50;96.70
45115;DHT22;30877;43.706;10.780;2022-09-09T10:10:11;28.60;96.70
45115;DHT22;30877;43.706;10.780;2022-09-09T10:12:54;28.60;96.70
45115;DHT22;30877;43.706;10.780;2022-09-09T10:15:33;28.60;96.70
45115;DHT22;30877;43.706;10.780;2022-09-09T10:18:18;28.70;96.70
45115;DHT22;30877;43.706;10.780;2022-09-09T10:20:58;28.80;96.70
45115;DHT22;30877;43.706;10.780;2022-09-09T10:23:47;29.00;96.70
45115;DHT22;30877;43.706;10.780;2022-09-09T10:26:32;28.70;96.70
45115;DHT22;30877;43.706;10.780;2022-09-09T10:29:31;28.60;96.70
45115;DHT22;30877;43.706;10.780;2022-09-09T10:32:16;28.50;96.70
45115;DHT22;30877;43.706;10.780;2022-09-09T10:34:57;28.50;96.70
45115;DHT22;30877;43.706;10.780;2022-09-09T10:37:41;28.50;96.70
45115;DHT22;30877;43.706;10.780;2022-09-09T10:40:23;28.50;96.70
45115;DHT22;30877;43.706;10.780;2022-09-09T10:43:09;28.60;96.70
45115;DHT22;30877;43.706;10.780;2022-09-09T10:45:47;28.70;96.70
45115;DHT22;30877;43.706;10.780;2022-09-09T10:48:30;28.60;96.70
45115;DHT22;30877;43.706;10.780;2022-09-09T10:51:11;28.70;96.70
45115;DHT22;30877;43.706;10.780;2022-09-09T10:53:56;28.90;96.70
45115;DHT22;30877;43.706;10.780;2022-09-09T10:56:27;29.00;96.70
45115;DHT22;30877;43.706;10.780;2022-09-09T10:59:02;28.90;96.70
45115;DHT22;30877;43.706;10.780;2022-09-09T11:01:36;28.90;96.70
45115;DHT22;30877;43.706;10.780;2022-09-09T11:04:12;29.00;96.70
45115;DHT22;30877;43.706;10.780;2022-09-09T11:06:48;29.00;96.70
45115;DHT22;30877;43.706;10.780;2022-09-09T11:09:22;29.10;96.70
45115;DHT22;30877;43.706;10.780;2022-09-09T11:11:55;29.20;96.70
45115;DHT22;30877;43.706;10.780;2022-09-09T11:14:29;29.20;96.70
45115;DHT22;30877;43.706;10.780;2022-09-09T11:17:08;29.20;96.70
45115;DHT22;30877;43.706;10.780;2022-09-09T11:19:39;29.30;96.70
45115;DHT22;30877;43.706;10.780;2022-09-09T11:22:16;29.30;96.70
45115;DHT22;30877;43.706;10.780;2022-09-09T11:24:49;29.30;96.70
45115;DHT22;30877;43.706;10.780;2022-09-09T11:27:21;29.20;96.70
45115;DHT22;30877;43.706;10.780;2022-09-09T11:30:19;29.30;96.70
45115;DHT22;30877;43.706;10.780;2022-09-09T11:33:31;29.40;96.70
45115;DHT22;30877;43.706;10.780;2022-09-09T11:36:19;29.40;96.70
45115;DHT22;30877;43.706;10.780;2022-09-09T11:38:55;29.50;96.70
45115;DHT22;30877;43.706;10.780;2022-09-09T11:41:34;29.60;96.70
45115;DHT22;30877;43.706;10.780;2022-09-09T11:44:12;29.60;96.70
45115;DHT22;30877;43.706;10.780;2022-09-09T11:46:44;29.80;96.70
45115;DHT22;30877;43.706;10.780;2022-09-09T11:49:27;29.80;96.70
45115;DHT22;30877;43.706;10.780;2022-09-09T11:51:57;29.80;96.70
45115;DHT22;30877;43.706;10.780;2022-09-09T11:54:29;29.70;96.70
45115;DHT22;30877;43.706;10.780;2022-09-09T11:57:00;29.90;96.70
45115;DHT22;30877;43.706;10.780;2022-09-09T11:59:32;29.90;96.70
45115;DHT22;30877;43.706;10.780;2022-09-09T12:02:03;29.90;96.70
45115;DHT22;30877;43.706;10.780;2022-09-09T12:04:49;30.00;96.70
45115;DHT22;30877;43.706;10.780;2022-09-09T12:07:31;30.20;96.70
45115;DHT22;30877;43.706;10.780;2022-09-09T12:10:03;30.20;96.70
45115;DHT22;30877;43.706;10.780;2022-09-09T12:12:34;30.10;96.70
45115;DHT22;30877;43.706;10.780;2022-09-09T12:15:22;30.20;96.70
45115;DHT22;30877;43.706;10.780;2022-09-09T12:17:53;30.20;96.70
45115;DHT22;30877;43.706;10.780;2022-09-09T12:20:33;30.30;96.70
45115;DHT22;30877;43.706;10.780;2022-09-09T12:23:15;30.30;96.70
45115;DHT22;30877;43.706;10.780;2022-09-09T12:26:25;30.40;96.70
45115;DHT22;30877;43.706;10.780;2022-09-09T12:29:05;30.60;96.70
45115;DHT22;30877;43.706;10.780;2022-09-09T12:31:41;30.70;96.70
45115;DHT22;30877;43.706;10.780;2022-09-09T12:34:16;30.40;96.70
45115;DHT22;30877;43.706;10.780;2022-09-09T12:36:50;30.30;96.70
45115;DHT22;30877;43.706;10.780;2022-09-09T12:39:26;30.20;96.70
45115;DHT22;30877;43.706;10.780;2022-09-09T12:41:55;30.20;96.70
45115;DHT22;30877;43.706;10.780;2022-09-09T12:44:25;30.20;96.70
45115;DHT22;30877;43.706;10.780;2022-09-09T12:46:57;30.20;96.70
45115;DHT22;30877;43.706;10.780;2022-09-09T12:49:31;30.40;96.70
45115;DHT22;30877;43.706;10.780;2022-09-09T12:52:04;30.30;96.70
45115;DHT22;30877;43.706;10.780;2022-09-09T12:54:35;30.20;96.70
45115;DHT22;30877;43.706;10.780;2022-09-09T12:57:05;30.20;96.70
45115;DHT22;30877;43.706;10.780;2022-09-09T12:59:38;30.30;96.70
45115;DHT22;30877;43.706;10.780;2022-09-09T13:02:18;30.20;96.70
45115;DHT22;30877;43.706;10.780;2022-09-09T13:04:49;30.40;96.70
45115;DHT22;30877;43.706;10.780;2022-09-09T13:07:18;30.40;96.70
45115;DHT22;30877;43.706;10.780;2022-09-09T13:09:48;30.30;96.70
45115;DHT22;30877;43.706;10.780;2022-09-09T13:12:18;30.50;96.70
45115;DHT22;30877;43.706;10.780;2022-09-09T13:14:49;30.40;96.70
45115;DHT22;30877;43.706;10.780;2022-09-09T13:17:21;30.50;96.70
45115;DHT22;30877;43.706;10.780;2022-09-09T13:19:52;30.50;96.70
45115;DHT22;30877;43.706;10.780;2022-09-09T13:22:24;30.40;96.70
45115;DHT22;30877;43.706;10.780;2022-09-09T13:25:06;30.30;96.70
45115;DHT22;30877;43.706;10.780;2022-09-09T13:27:53;30.50;96.70
45115;DHT22;30877;43.706;10.780;2022-09-09T13:30:23;30.40;96.70
45115;DHT22;30877;43.706;10.780;2022-09-09T13:33:17;30.40;96.70
45115;DHT22;30877;43.706;10.780;2022-09-09T13:35:49;30.30;96.70
45115;DHT22;30877;43.706;10.780;2022-09-09T13:38:18;30.40;96.70
45115;DHT22;30877;43.706;10.780;2022-09-09T13:40:53;30.40;96.70
45115;DHT22;30877;43.706;10.780;2022-09-09T13:43:24;30.40;96.70
45115;DHT22;30877;43.706;10.780;2022-09-09T13:45:56;30.10;96.70
45115;DHT22;30877;43.706;10.780;2022-09-09T13:48:26;30.20;96.70
45115;DHT22;30877;43.706;10.780;2022-09-09T13:50:57;30.30;96.70
45115;DHT22;30877;43.706;10.780;2022-09-09T13:53:25;30.60;96.70
45115;DHT22;30877;43.706;10.780;2022-09-09T13:55:54;30.70;96.70
45115;DHT22;30877;43.706;10.780;2022-09-09T13:58:23;30.70;96.70
45115;DHT22;30877;43.706;10.780;2022-09-09T14:00:53;30.80;96.70
45115;DHT22;30877;43.706;10.780;2022-09-09T14:03:21;30.90;96.70
45115;DHT22;30877;43.706;10.780;2022-09-09T14:05:50;30.90;96.70
45115;DHT22;30877;43.706;10.780;2022-09-09T14:08:25;30.80;96.70
45115;DHT22;30877;43.706;10.780;2022-09-09T14:10:53;31.00;96.70
45115;DHT22;30877;43.706;10.780;2022-09-09T14:13:23;31.00;96.70
45115;DHT22;30877;43.706;10.780;2022-09-09T14:15:51;30.80;96.70
45115;DHT22;30877;43.706;10.780;2022-09-09T14:18:19;31.10;96.70
45115;DHT22;30877;43.706;10.780;2022-09-09T14:20:46;31.30;96.70
45115;DHT22;30877;43.706;10.780;2022-09-09T14:23:15;31.60;96.70
45115;DHT22;30877;43.706;10.780;2022-09-09T14:25:44;31.80;96.70
45115;DHT22;30877;43.706;10.780;2022-09-09T14:28:14;31.70;96.70
45115;DHT22;30877;43.706;10.780;2022-09-09T14:30:43;31.70;96.70
45115;DHT22;30877;43.706;10.780;2022-09-09T14:33:13;31.70;96.70
45115;DHT22;30877;43.706;10.780;2022-09-09T14:35:43;32.00;96.70
45115;DHT22;30877;43.706;10.780;2022-09-09T14:38:14;32.10;96.70
45115;DHT22;30877;43.706;10.780;2022-09-09T14:40:47;32.00;96.70
45115;DHT22;30877;43.706;10.780;2022-09-09T14:43:15;32.40;96.70
45115;DHT22;30877;43.706;10.780;2022-09-09T14:45:43;32.60;96.70
45115;DHT22;30877;43.706;10.780;2022-09-09T14:48:12;32.70;96.70
45115;DHT22;30877;43.706;10.780;2022-09-09T14:50:40;32.60;96.70
45115;DHT22;30877;43.706;10.780;2022-09-09T14:53:08;32.50;96.70
45115;DHT22;30877;43.706;10.780;2022-09-09T14:55:37;32.50;96.70
45115;DHT22;30877;43.706;10.780;2022-09-09T14:58:06;32.80;96.70
45115;DHT22;30877;43.706;10.780;2022-09-09T15:00:34;33.10;96.70
45115;DHT22;30877;43.706;10.780;2022-09-09T15:03:02;33.20;96.70
45115;DHT22;30877;43.706;10.780;2022-09-09T15:05:31;33.40;96.70
45115;DHT22;30877;43.706;10.780;2022-09-09T15:07:59;33.20;96.60
45115;DHT22;30877;43.706;10.780;2022-09-09T15:10:27;33.30;96.10
45115;DHT22;30877;43.706;10.780;2022-09-09T15:12:55;33.20;96.70
45115;DHT22;30877;43.706;10.780;2022-09-09T15:15:26;33.40;96.50
45115;DHT22;30877;43.706;10.780;2022-09-09T15:17:54;33.40;96.00
45115;DHT22;30877;43.706;10.780;2022-09-09T15:20:22;33.70;96.70
45115;DHT22;30877;43.706;10.780;2022-09-09T15:22:50;33.70;96.70
45115;DHT22;30877;43.706;10.780;2022-09-09T15:25:19;34.20;96.70
45115;DHT22;30877;43.706;10.780;2022-09-09T15:27:49;34.30;96.70
45115;DHT22;30877;43.706;10.780;2022-09-09T15:30:17;34.20;96.70
45115;DHT22;30877;43.706;10.780;2022-09-09T15:32:46;34.20;96.70
45115;DHT22;30877;43.706;10.780;2022-09-09T15:35:14;34.40;96.70
45115;DHT22;30877;43.706;10.780;2022-09-09T15:37:43;34.30;96.70
45115;DHT22;30877;43.706;10.780;2022-09-09T15:40:11;34.10;96.70
45115;DHT22;30877;43.706;10.780;2022-09-09T15:42:39;33.50;96.70
45115;DHT22;30877;43.706;10.780;2022-09-09T15:45:08;32.70;96.70
45115;DHT22;30877;43.706;10.780;2022-09-09T15:47:36;31.90;96.70
45115;DHT22;30877;43.706;10.780;2022-09-09T15:50:07;31.10;96.70
45115;DHT22;30877;43.706;10.780;2022-09-09T15:52:35;30.40;96.70
45115;DHT22;30877;43.706;10.780;2022-09-09T15:55:03;30.20;96.70
45115;DHT22;30877;43.706;10.780;2022-09-09T15:57:31;30.10;96.70